createdAt,value
2023-02-13T00:01:31.892Z,102874.34
2023-02-13T00:11:36.283Z,102871.75
2023-02-13T00:21:39.441Z,102862.38
2023-02-13T00:31:45.054Z,102862.44
2023-02-13T00:41:50.089Z,102866.66
2023-02-13T00:51:54.690Z,102851.22
2023-02-13T01:01:58.645Z,102844.38
2023-02-13T01:12:03.291Z,102837.06
2023-02-13T01:22:06.519Z,102820.69
2023-02-13T01:32:10.930Z,102828.50
2023-02-13T01:42:17.569Z,102826.63
2023-02-13T01:52:21.796Z,102821.59
2023-02-13T02:02:25.201Z,102820.38
2023-02-13T02:12:35.589Z,102818.63
2023-02-13T02:23:20.205Z,102827.34
2023-02-13T02:33:34.504Z,102827.34
2023-02-13T02:43:51.101Z,102827.25
2023-02-13T02:54:24.601Z,102832.38
2023-02-13T03:04:51.761Z,102821.34
2023-02-13T03:14:55.969Z,102830.84
2023-02-13T03:25:07.330Z,102833.00
2023-02-13T03:35:52.367Z,102834.97
2023-02-13T03:45:57.481Z,102834.59
2023-02-13T03:56:21.700Z,102832.88
2023-02-13T04:06:30.967Z,102828.31
2023-02-13T04:16:38.733Z,102830.09
2023-02-13T04:26:44.538Z,102839.31
2023-02-13T04:36:49.040Z,102846.41
2023-02-13T04:46:52.032Z,102830.28
2023-02-13T04:56:56.503Z,102830.06
2023-02-13T05:06:59.558Z,102820.28
2023-02-13T05:17:03.784Z,102823.06
2023-02-13T05:27:07.649Z,102829.16
2023-02-13T05:37:12.209Z,102832.50
2023-02-13T05:47:15.107Z,102830.63
2023-02-13T05:57:19.504Z,102837.31
2023-02-13T06:07:22.245Z,102840.63
2023-02-13T06:17:26.587Z,102840.31
2023-02-13T06:27:29.618Z,102850.41
2023-02-13T06:37:34.241Z,102856.03
2023-02-13T06:47:37.853Z,102856.59
2023-02-13T06:57:43.535Z,102856.75
2023-02-13T07:07:46.758Z,102843.47
2023-02-13T07:17:57.071Z,102846.78
2023-02-13T07:28:03.053Z,102842.56
2023-02-13T07:38:07.584Z,102846.28
2023-02-13T07:48:10.769Z,102839.31
2023-02-13T07:58:15.300Z,102843.00
2023-02-13T08:08:18.827Z,102840.84
2023-02-13T08:18:23.300Z,102841.88
2023-02-13T08:28:26.271Z,102842.94
2023-02-13T08:38:31.701Z,102853.19
2023-02-13T08:48:34.890Z,102853.84
2023-02-13T08:58:39.681Z,102857.56
2023-02-13T09:08:42.933Z,102860.41
2023-02-13T09:18:49.540Z,102865.53
2023-02-13T09:28:52.621Z,102858.22
2023-02-13T09:38:58.606Z,102867.03
2023-02-13T09:49:08.079Z,102862.28
2023-02-13T09:59:29.475Z,102867.66
2023-02-13T10:09:39.189Z,102853.03
2023-02-13T10:19:48.513Z,102855.06
2023-02-13T10:30:15.427Z,102859.38
2023-02-13T10:40:20.819Z,102850.19
2023-02-13T10:50:31.545Z,102849.66
2023-02-13T11:00:42.824Z,102833.75
2023-02-13T11:10:46.103Z,102822.47
2023-02-13T11:21:02.455Z,102821.06
2023-02-13T11:31:14.504Z,102787.75
2023-02-13T11:41:21.286Z,102782.63
2023-02-13T11:51:37.073Z,102772.47
2023-02-13T12:01:41.860Z,102761.44
2023-02-13T12:11:48.333Z,102745.28
2023-02-13T12:22:16.582Z,102739.44
2023-02-13T12:32:22.582Z,102725.69
2023-02-13T12:42:40.550Z,102716.19
2023-02-13T12:53:05.530Z,102698.16
2023-02-13T13:03:35.610Z,102680.91
2023-02-13T13:13:50.100Z,102675.72
2023-02-13T13:24:01.963Z,102671.38
2023-02-13T13:34:09.500Z,102668.81
2023-02-13T13:44:28.437Z,102666.22
2023-02-13T13:54:36.745Z,102651.56
2023-02-13T14:04:43.673Z,102648.91
2023-02-13T14:14:47.099Z,102650.69
2023-02-13T14:24:52.837Z,102640.31
2023-02-13T14:35:00.168Z,102635.19
2023-02-13T14:45:11.593Z,102633.47
2023-02-13T14:55:18.172Z,102619.66
2023-02-13T15:05:28.821Z,102621.41
2023-02-13T15:15:34.856Z,102616.25
2023-02-13T15:25:41.201Z,102610.25
2023-02-13T15:35:58.121Z,102610.25
2023-02-13T15:46:05.578Z,102618.84
2023-02-13T15:56:16.609Z,102613.66
2023-02-13T16:06:22.050Z,102613.66
2023-02-13T16:16:27.343Z,102618.81
2023-02-13T16:26:31.612Z,102614.50
2023-02-13T16:36:35.993Z,102615.34
2023-02-13T16:46:40.981Z,102622.22
2023-02-13T16:56:47.597Z,102635.94
2023-02-13T17:06:55.857Z,102649.66
2023-02-13T17:17:01.695Z,102659.09
2023-02-13T17:27:04.716Z,102660.75
2023-02-13T17:37:18.622Z,102659.84
2023-02-13T17:47:22.477Z,102650.34
2023-02-13T17:57:27.002Z,102651.97
2023-02-13T18:07:30.253Z,102650.19
2023-02-13T18:17:34.561Z,102650.13
2023-02-13T18:27:38.274Z,102656.13
2023-02-13T18:37:42.681Z,102661.03
2023-02-13T18:47:45.774Z,102664.50
2023-02-13T18:57:53.298Z,102665.22
2023-02-13T19:07:56.298Z,102678.81
2023-02-13T19:18:00.466Z,102682.09
2023-02-13T19:28:03.311Z,102687.16
2023-02-13T19:38:07.358Z,102700.59
2023-02-13T19:48:11.466Z,102697.81
2023-02-13T19:58:16.352Z,102707.34
2023-02-13T20:08:19.232Z,102693.66
2023-02-13T20:18:23.935Z,102690.38
2023-02-13T20:28:27.147Z,102682.41
2023-02-13T20:48:52.895Z,102690.03
2023-02-13T20:58:59.949Z,102686.50
2023-02-13T21:09:04.792Z,102684.78
2023-02-13T21:19:12.516Z,102680.97
2023-02-13T21:29:15.531Z,102669.81
2023-02-13T21:39:20.102Z,102674.91
2023-02-13T21:49:25.231Z,102665.50
2023-02-13T21:59:29.902Z,102666.41
2023-02-13T22:09:33.102Z,102665.19
2023-02-13T22:19:37.801Z,102666.75
2023-02-13T22:29:41.044Z,102663.41
2023-02-13T22:39:45.946Z,102653.63
2023-02-13T22:49:48.795Z,102663.50
2023-02-13T22:59:53.240Z,102668.03
2023-02-13T23:09:56.533Z,102668.47
2023-02-13T23:20:01.085Z,102671.16
2023-02-13T23:30:05.121Z,102679.91
2023-02-13T23:40:14.232Z,102689.75
2023-02-13T23:50:17.471Z,102687.34
